sensor_id;sensor_type;location;lat;lon;timestamp;temperature;humidity
45435;DHT22;31183;47.404;8.500;2023-09-19T00:00:35;19.10;99.90
45435;DHT22;31183;47.404;8.500;2023-09-19T00:03:02;19.10;99.90
45435;DHT22;31183;47.404;8.500;2023-09-19T00:05:33;19.10;99.90
45435;DHT22;31183;47.404;8.500;2023-09-19T00:08:02;19.10;99.90
45435;DHT22;31183;47.404;8.500;2023-09-19T00:10:32;19.00;99.90
45435;DHT22;31183;47.404;8.500;2023-09-19T00:13:03;19.00;99.90
45435;DHT22;31183;47.404;8.500;2023-09-19T00:15:37;19.00;99.90
45435;DHT22;31183;47.404;8.500;2023-09-19T00:18:05;18.90;99.90
45435;DHT22;31183;47.404;8.500;2023-09-19T00:20:36;18.90;99.90
45435;DHT22;31183;47.404;8.500;2023-09-19T00:23:03;18.90;99.90
45435;DHT22;31183;47.404;8.500;2023-09-19T00:25:31;18.90;99.90
45435;DHT22;31183;47.404;8.500;2023-09-19T00:27:59;18.90;99.90
45435;DHT22;31183;47.404;8.500;2023-09-19T00:30:25;18.80;99.90
45435;DHT22;31183;47.404;8.500;2023-09-19T00:32:52;18.80;99.90
45435;DHT22;31183;47.404;8.500;2023-09-19T00:35:19;18.80;99.90
45435;DHT22;31183;47.404;8.500;2023-09-19T00:37:46;18.80;99.90
45435;DHT22;31183;47.404;8.500;2023-09-19T00:40:13;18.80;99.90
45435;DHT22;31183;47.404;8.500;2023-09-19T00:42:43;18.80;99.90
45435;DHT22;31183;47.404;8.500;2023-09-19T00:45:11;18.80;99.90
45435;DHT22;31183;47.404;8.500;2023-09-19T00:47:46;18.80;99.90
45435;DHT22;31183;47.404;8.500;2023-09-19T00:50:21;18.80;99.90
45435;DHT22;31183;47.404;8.500;2023-09-19T00:52:50;18.80;99.90
45435;DHT22;31183;47.404;8.500;2023-09-19T00:55:19;18.90;99.90
45435;DHT22;31183;47.404;8.500;2023-09-19T00:57:48;18.90;99.90
45435;DHT22;31183;47.404;8.500;2023-09-19T01:00:16;18.90;99.90
45435;DHT22;31183;47.404;8.500;2023-09-19T01:02:47;18.90;99.90
45435;DHT22;31183;47.404;8.500;2023-09-19T01:05:15;18.90;99.90
45435;DHT22;31183;47.404;8.500;2023-09-19T01:07:42;18.90;99.90
45435;DHT22;31183;47.404;8.500;2023-09-19T01:10:12;18.90;99.90
45435;DHT22;31183;47.404;8.500;2023-09-19T01:15:38;19.00;99.90
45435;DHT22;31183;47.404;8.500;2023-09-19T01:20:59;19.00;99.90
45435;DHT22;31183;47.404;8.500;2023-09-19T01:27:25;18.90;99.90
45435;DHT22;31183;47.404;8.500;2023-09-19T01:30:10;18.90;99.90
45435;DHT22;31183;47.404;8.500;2023-09-19T01:32:38;18.90;99.90
45435;DHT22;31183;47.404;8.500;2023-09-19T01:35:05;18.90;99.90
45435;DHT22;31183;47.404;8.500;2023-09-19T01:37:32;18.90;99.90
45435;DHT22;31183;47.404;8.500;2023-09-19T01:40:03;18.90;99.90
45435;DHT22;31183;47.404;8.500;2023-09-19T01:50:44;18.80;99.90
45435;DHT22;31183;47.404;8.500;2023-09-19T01:53:22;18.80;99.90
45435;DHT22;31183;47.404;8.500;2023-09-19T01:55:50;18.80;99.90
45435;DHT22;31183;47.404;8.500;2023-09-19T02:00:49;18.80;99.90
45435;DHT22;31183;47.404;8.500;2023-09-19T02:03:21;18.70;99.90
45435;DHT22;31183;47.404;8.500;2023-09-19T02:05:50;18.70;99.90
45435;DHT22;31183;47.404;8.500;2023-09-19T02:08:19;18.70;99.90
45435;DHT22;31183;47.404;8.500;2023-09-19T02:10:46;18.70;99.90
45435;DHT22;31183;47.404;8.500;2023-09-19T02:13:19;18.70;99.90
45435;DHT22;31183;47.404;8.500;2023-09-19T02:15:47;18.70;99.90
45435;DHT22;31183;47.404;8.500;2023-09-19T02:18:14;18.70;99.90
45435;DHT22;31183;47.404;8.500;2023-09-19T02:20:41;18.70;99.90
45435;DHT22;31183;47.404;8.500;2023-09-19T02:23:09;18.70;99.90
45435;DHT22;31183;47.404;8.500;2023-09-19T02:25:36;18.70;99.90
45435;DHT22;31183;47.404;8.500;2023-09-19T02:28:04;18.70;99.90
45435;DHT22;31183;47.404;8.500;2023-09-19T02:30:32;18.70;99.90
45435;DHT22;31183;47.404;8.500;2023-09-19T02:32:59;18.70;99.90
45435;DHT22;31183;47.404;8.500;2023-09-19T02:35:29;18.70;99.90
45435;DHT22;31183;47.404;8.500;2023-09-19T02:38:02;18.60;99.90
45435;DHT22;31183;47.404;8.500;2023-09-19T02:40:33;18.70;99.90
45435;DHT22;31183;47.404;8.500;2023-09-19T02:43:02;18.60;99.90
45435;DHT22;31183;47.404;8.500;2023-09-19T02:45:29;18.60;99.90
45435;DHT22;31183;47.404;8.500;2023-09-19T02:47:56;18.60;99.90
45435;DHT22;31183;47.404;8.500;2023-09-19T02:50:24;18.60;99.90
45435;DHT22;31183;47.404;8.500;2023-09-19T02:52:50;18.60;99.90
45435;DHT22;31183;47.404;8.500;2023-09-19T02:55:19;18.60;99.90
45435;DHT22;31183;47.404;8.500;2023-09-19T02:57:51;18.60;99.90
45435;DHT22;31183;47.404;8.500;2023-09-19T03:00:18;18.60;99.90
45435;DHT22;31183;47.404;8.500;2023-09-19T03:02:54;18.60;99.90
45435;DHT22;31183;47.404;8.500;2023-09-19T03:05:22;18.60;99.90
45435;DHT22;31183;47.404;8.500;2023-09-19T03:07:50;18.60;99.90
45435;DHT22;31183;47.404;8.500;2023-09-19T03:10:20;18.60;99.90
45435;DHT22;31183;47.404;8.500;2023-09-19T03:12:48;18.60;99.90
45435;DHT22;31183;47.404;8.500;2023-09-19T03:15:15;18.60;99.90
45435;DHT22;31183;47.404;8.500;2023-09-19T03:17:47;18.60;99.90
45435;DHT22;31183;47.404;8.500;2023-09-19T03:20:15;18.60;99.90
45435;DHT22;31183;47.404;8.500;2023-09-19T03:22:44;18.60;99.90
45435;DHT22;31183;47.404;8.500;2023-09-19T03:25:12;18.70;99.90
45435;DHT22;31183;47.404;8.500;2023-09-19T03:27:39;18.70;99.90
45435;DHT22;31183;47.404;8.500;2023-09-19T03:30:07;18.70;99.90
45435;DHT22;31183;47.404;8.500;2023-09-19T03:32:46;18.70;99.90
45435;DHT22;31183;47.404;8.500;2023-09-19T03:35:13;18.70;99.90
45435;DHT22;31183;47.404;8.500;2023-09-19T03:37:41;18.70;99.90
45435;DHT22;31183;47.404;8.500;2023-09-19T03:40:10;18.60;99.90
45435;DHT22;31183;47.404;8.500;2023-09-19T03:42:40;18.60;99.90
45435;DHT22;31183;47.404;8.500;2023-09-19T03:45:09;18.60;99.90
45435;DHT22;31183;47.404;8.500;2023-09-19T03:47:40;18.60;99.90
45435;DHT22;31183;47.404;8.500;2023-09-19T03:50:07;18.60;99.90
45435;DHT22;31183;47.404;8.500;2023-09-19T03:52:38;18.60;99.90
45435;DHT22;31183;47.404;8.500;2023-09-19T03:55:04;18.50;99.90
45435;DHT22;31183;47.404;8.500;2023-09-19T03:57:32;18.60;99.90
45435;DHT22;31183;47.404;8.500;2023-09-19T03:59:58;18.60;99.90
45435;DHT22;31183;47.404;8.500;2023-09-19T04:02:25;18.60;99.90
45435;DHT22;31183;47.404;8.500;2023-09-19T04:04:52;18.60;99.90
45435;DHT22;31183;47.404;8.500;2023-09-19T04:07:19;18.60;99.90
45435;DHT22;31183;47.404;8.500;2023-09-19T04:09:49;18.60;99.90
45435;DHT22;31183;47.404;8.500;2023-09-19T04:12:15;18.50;99.90
45435;DHT22;31183;47.404;8.500;2023-09-19T04:14:45;18.50;99.90
45435;DHT22;31183;47.404;8.500;2023-09-19T04:17:12;18.50;99.90
45435;DHT22;31183;47.404;8.500;2023-09-19T04:19:38;18.40;99.90
45435;DHT22;31183;47.404;8.500;2023-09-19T04:22:07;18.30;99.90
45435;DHT22;31183;47.404;8.500;2023-09-19T04:24:33;18.20;99.90
45435;DHT22;31183;47.404;8.500;2023-09-19T04:27:00;18.20;99.90
45435;DHT22;31183;47.404;8.500;2023-09-19T04:29:28;18.20;99.90
45435;DHT22;31183;47.404;8.500;2023-09-19T04:31:56;18.30;99.90
45435;DHT22;31183;47.404;8.500;2023-09-19T04:34:26;18.30;99.90
45435;DHT22;31183;47.404;8.500;2023-09-19T04:36:54;18.30;99.90
45435;DHT22;31183;47.404;8.500;2023-09-19T04:39:23;18.30;99.90
45435;DHT22;31183;47.404;8.500;2023-09-19T04:41:53;18.30;99.90
45435;DHT22;31183;47.404;8.500;2023-09-19T04:44:19;18.30;99.90
45435;DHT22;31183;47.404;8.500;2023-09-19T04:46:46;18.30;99.90
45435;DHT22;31183;47.404;8.500;2023-09-19T04:49:13;18.30;99.90
45435;DHT22;31183;47.404;8.500;2023-09-19T04:51:40;18.30;99.90
45435;DHT22;31183;47.404;8.500;2023-09-19T04:54:07;18.30;99.90
45435;DHT22;31183;47.404;8.500;2023-09-19T04:56:34;18.30;99.90
45435;DHT22;31183;47.404;8.500;2023-09-19T04:59:00;18.30;99.90
45435;DHT22;31183;47.404;8.500;2023-09-19T05:01:27;18.30;99.90
45435;DHT22;31183;47.404;8.500;2023-09-19T05:03:54;18.30;99.90
45435;DHT22;31183;47.404;8.500;2023-09-19T05:06:21;18.30;99.90
45435;DHT22;31183;47.404;8.500;2023-09-19T05:08:48;18.30;99.90
45435;DHT22;31183;47.404;8.500;2023-09-19T05:11:20;18.40;99.90
45435;DHT22;31183;47.404;8.500;2023-09-19T05:13:50;18.40;99.90
45435;DHT22;31183;47.404;8.500;2023-09-19T05:16:19;18.40;99.90
45435;DHT22;31183;47.404;8.500;2023-09-19T05:18:46;18.40;99.90
45435;DHT22;31183;47.404;8.500;2023-09-19T05:21:12;18.30;99.90
45435;DHT22;31183;47.404;8.500;2023-09-19T05:23:39;18.30;99.90
45435;DHT22;31183;47.404;8.500;2023-09-19T05:26:06;18.30;99.90
45435;DHT22;31183;47.404;8.500;2023-09-19T05:28:33;18.20;99.90
45435;DHT22;31183;47.404;8.500;2023-09-19T05:31:01;18.20;99.90
45435;DHT22;31183;47.404;8.500;2023-09-19T05:33:32;18.10;99.90
45435;DHT22;31183;47.404;8.500;2023-09-19T05:35:59;18.10;99.90
45435;DHT22;31183;47.404;8.500;2023-09-19T05:38:26;18.10;99.90
45435;DHT22;31183;47.404;8.500;2023-09-19T05:40:53;18.10;99.90
45435;DHT22;31183;47.404;8.500;2023-09-19T05:43:20;18.10;99.90
45435;DHT22;31183;47.404;8.500;2023-09-19T05:45:48;18.20;99.90
45435;DHT22;31183;47.404;8.500;2023-09-19T05:48:15;18.10;99.90
45435;DHT22;31183;47.404;8.500;2023-09-19T05:50:43;18.20;99.90
45435;DHT22;31183;47.404;8.500;2023-09-19T05:53:13;18.20;99.90
45435;DHT22;31183;47.404;8.500;2023-09-19T05:55:41;18.30;99.90
45435;DHT22;31183;47.404;8.500;2023-09-19T05:58:09;18.30;99.90
45435;DHT22;31183;47.404;8.500;2023-09-19T06:00:37;18.40;99.90
45435;DHT22;31183;47.404;8.500;2023-09-19T06:03:05;18.50;99.90
45435;DHT22;31183;47.404;8.500;2023-09-19T06:05:33;18.50;99.90
45435;DHT22;31183;47.404;8.500;2023-09-19T06:08:00;18.50;99.90
45435;DHT22;31183;47.404;8.500;2023-09-19T06:10:27;18.50;99.90
45435;DHT22;31183;47.404;8.500;2023-09-19T06:12:54;18.50;99.90
45435;DHT22;31183;47.404;8.500;2023-09-19T06:15:21;18.60;99.90
45435;DHT22;31183;47.404;8.500;2023-09-19T06:17:53;18.70;99.90
45435;DHT22;31183;47.404;8.500;2023-09-19T06:20:23;18.70;99.90
45435;DHT22;31183;47.404;8.500;2023-09-19T06:22:51;18.90;99.90
45435;DHT22;31183;47.404;8.500;2023-09-19T06:25:18;19.10;99.90
45435;DHT22;31183;47.404;8.500;2023-09-19T06:27:50;19.10;99.90
45435;DHT22;31183;47.404;8.500;2023-09-19T06:30:22;19.20;99.90
45435;DHT22;31183;47.404;8.500;2023-09-19T06:32:57;19.10;99.90
45435;DHT22;31183;47.404;8.500;2023-09-19T06:35:24;19.00;99.90
45435;DHT22;31183;47.404;8.500;2023-09-19T06:37:52;19.10;99.90
45435;DHT22;31183;47.404;8.500;2023-09-19T06:40:19;19.20;99.90
45435;DHT22;31183;47.404;8.500;2023-09-19T06:42:49;19.30;99.90
45435;DHT22;31183;47.404;8.500;2023-09-19T06:45:16;19.50;99.90
45435;DHT22;31183;47.404;8.500;2023-09-19T06:47:47;19.50;99.90
45435;DHT22;31183;47.404;8.500;2023-09-19T06:50:21;19.40;99.90
45435;DHT22;31183;47.404;8.500;2023-09-19T06:52:53;19.30;99.90
45435;DHT22;31183;47.404;8.500;2023-09-19T06:55:22;19.20;99.90
45435;DHT22;31183;47.404;8.500;2023-09-19T06:57:51;19.10;99.90
45435;DHT22;31183;47.404;8.500;2023-09-19T07:00:20;19.00;99.90
45435;DHT22;31183;47.404;8.500;2023-09-19T07:02:58;19.00;99.90
45435;DHT22;31183;47.404;8.500;2023-09-19T07:05:27;19.00;99.90
45435;DHT22;31183;47.404;8.500;2023-09-19T07:07:54;19.10;99.90
45435;DHT22;31183;47.404;8.500;2023-09-19T07:10:22;19.10;99.90
45435;DHT22;31183;47.404;8.500;2023-09-19T07:12:57;19.10;99.90
45435;DHT22;31183;47.404;8.500;2023-09-19T07:15:27;19.00;99.90
45435;DHT22;31183;47.404;8.500;2023-09-19T07:17:54;18.90;99.90
45435;DHT22;31183;47.404;8.500;2023-09-19T07:20:24;18.90;99.90
45435;DHT22;31183;47.404;8.500;2023-09-19T07:22:56;18.80;99.90
45435;DHT22;31183;47.404;8.500;2023-09-19T07:25:22;18.80;99.90
45435;DHT22;31183;47.404;8.500;2023-09-19T07:27:49;18.80;99.90
45435;DHT22;31183;47.404;8.500;2023-09-19T07:30:17;18.80;99.90
45435;DHT22;31183;47.404;8.500;2023-09-19T07:32:44;18.90;99.90
45435;DHT22;31183;47.404;8.500;2023-09-19T07:35:11;18.90;99.90
45435;DHT22;31183;47.404;8.500;2023-09-19T07:37:38;19.10;99.90
45435;DHT22;31183;47.404;8.500;2023-09-19T07:40:06;19.20;99.90
45435;DHT22;31183;47.404;8.500;2023-09-19T07:42:42;19.20;99.90
45435;DHT22;31183;47.404;8.500;2023-09-19T07:45:11;19.20;99.90
45435;DHT22;31183;47.404;8.500;2023-09-19T07:47:44;19.20;99.90
45435;DHT22;31183;47.404;8.500;2023-09-19T07:50:16;19.30;99.90
45435;DHT22;31183;47.404;8.500;2023-09-19T07:52:44;19.40;99.90
45435;DHT22;31183;47.404;8.500;2023-09-19T07:55:11;19.40;99.90
45435;DHT22;31183;47.404;8.500;2023-09-19T07:57:43;19.30;99.90
45435;DHT22;31183;47.404;8.500;2023-09-19T08:00:10;19.30;99.90
45435;DHT22;31183;47.404;8.500;2023-09-19T08:02:41;19.30;99.90
45435;DHT22;31183;47.404;8.500;2023-09-19T08:05:09;19.30;99.90
45435;DHT22;31183;47.404;8.500;2023-09-19T08:07:37;19.20;99.90
45435;DHT22;31183;47.404;8.500;2023-09-19T08:10:05;19.20;99.90
45435;DHT22;31183;47.404;8.500;2023-09-19T08:12:34;19.10;99.90
45435;DHT22;31183;47.404;8.500;2023-09-19T08:15:05;19.00;99.90
45435;DHT22;31183;47.404;8.500;2023-09-19T08:17:35;19.00;99.90
45435;DHT22;31183;47.404;8.500;2023-09-19T08:20:02;18.90;99.90
45435;DHT22;31183;47.404;8.500;2023-09-19T08:22:31;18.80;99.90
45435;DHT22;31183;47.404;8.500;2023-09-19T08:24:58;18.80;99.90
45435;DHT22;31183;47.404;8.500;2023-09-19T08:27:25;18.80;99.90
45435;DHT22;31183;47.404;8.500;2023-09-19T08:29:53;18.80;99.90
45435;DHT22;31183;47.404;8.500;2023-09-19T08:32:20;19.00;99.90
45435;DHT22;31183;47.404;8.500;2023-09-19T08:34:50;18.90;99.90
45435;DHT22;31183;47.404;8.500;2023-09-19T08:37:17;19.00;99.90
45435;DHT22;31183;47.404;8.500;2023-09-19T08:39:45;19.00;99.90
45435;DHT22;31183;47.404;8.500;2023-09-19T08:42:12;19.10;99.90
45435;DHT22;31183;47.404;8.500;2023-09-19T08:44:40;19.20;99.90
45435;DHT22;31183;47.404;8.500;2023-09-19T08:47:11;19.10;99.90
45435;DHT22;31183;47.404;8.500;2023-09-19T08:50:15;19.10;99.90
45435;DHT22;31183;47.404;8.500;2023-09-19T08:52:46;19.10;99.90
45435;DHT22;31183;47.404;8.500;2023-09-19T08:55:17;19.10;99.90
45435;DHT22;31183;47.404;8.500;2023-09-19T08:57:49;19.10;99.90
45435;DHT22;31183;47.404;8.500;2023-09-19T09:00:18;19.10;99.90
45435;DHT22;31183;47.404;8.500;2023-09-19T09:02:47;19.10;99.90
45435;DHT22;31183;47.404;8.500;2023-09-19T09:05:16;19.10;99.90
45435;DHT22;31183;47.404;8.500;2023-09-19T09:07:50;19.10;99.90
45435;DHT22;31183;47.404;8.500;2023-09-19T09:10:18;19.20;99.90
45435;DHT22;31183;47.404;8.500;2023-09-19T09:12:51;19.20;99.90
45435;DHT22;31183;47.404;8.500;2023-09-19T09:15:23;19.30;99.90
45435;DHT22;31183;47.404;8.500;2023-09-19T09:17:51;19.30;99.90
45435;DHT22;31183;47.404;8.500;2023-09-19T09:20:20;19.30;99.90
45435;DHT22;31183;47.404;8.500;2023-09-19T09:22:53;19.30;99.90
45435;DHT22;31183;47.404;8.500;2023-09-19T09:25:21;19.30;99.90
45435;DHT22;31183;47.404;8.500;2023-09-19T09:28:01;19.40;99.90
45435;DHT22;31183;47.404;8.500;2023-09-19T09:30:35;19.50;99.90
45435;DHT22;31183;47.404;8.500;2023-09-19T09:33:11;19.50;99.90
45435;DHT22;31183;47.404;8.500;2023-09-19T09:35:56;19.50;99.90
45435;DHT22;31183;47.404;8.500;2023-09-19T09:38:28;19.40;99.90
45435;DHT22;31183;47.404;8.500;2023-09-19T09:41:00;19.50;99.90
45435;DHT22;31183;47.404;8.500;2023-09-19T09:43:37;19.60;99.90
45435;DHT22;31183;47.404;8.500;2023-09-19T09:46:15;20.00;99.90
45435;DHT22;31183;47.404;8.500;2023-09-19T09:51:42;20.40;99.90
45435;DHT22;31183;47.404;8.500;2023-09-19T09:54:13;20.60;99.90
45435;DHT22;31183;47.404;8.500;2023-09-19T09:57:02;20.90;99.90
45435;DHT22;31183;47.404;8.500;2023-09-19T09:59:48;21.20;99.90
45435;DHT22;31183;47.404;8.500;2023-09-19T10:02:25;21.50;99.90
45435;DHT22;31183;47.404;8.500;2023-09-19T10:04:57;21.50;99.90
45435;DHT22;31183;47.404;8.500;2023-09-19T10:07:41;21.50;99.90
45435;DHT22;31183;47.404;8.500;2023-09-19T10:10:15;21.40;99.90
45435;DHT22;31183;47.404;8.500;2023-09-19T10:12:48;21.20;99.90
45435;DHT22;31183;47.404;8.500;2023-09-19T10:15:17;21.00;99.90
45435;DHT22;31183;47.404;8.500;2023-09-19T10:17:45;21.00;99.90
45435;DHT22;31183;47.404;8.500;2023-09-19T10:20:17;21.10;99.90
45435;DHT22;31183;47.404;8.500;2023-09-19T10:23:07;21.50;99.90
45435;DHT22;31183;47.404;8.500;2023-09-19T10:25:47;21.90;99.90
45435;DHT22;31183;47.404;8.500;2023-09-19T10:28:16;22.10;99.90
45435;DHT22;31183;47.404;8.500;2023-09-19T10:30:49;22.10;99.90
45435;DHT22;31183;47.404;8.500;2023-09-19T10:33:21;22.20;99.90
45435;DHT22;31183;47.404;8.500;2023-09-19T10:35:50;22.20;99.90
45435;DHT22;31183;47.404;8.500;2023-09-19T10:38:27;22.10;99.90
45435;DHT22;31183;47.404;8.500;2023-09-19T10:40:56;21.90;99.90
45435;DHT22;31183;47.404;8.500;2023-09-19T10:43:30;21.80;99.90
45435;DHT22;31183;47.404;8.500;2023-09-19T10:46:03;21.70;99.90
45435;DHT22;31183;47.404;8.500;2023-09-19T10:48:33;21.60;99.90
45435;DHT22;31183;47.404;8.500;2023-09-19T10:51:07;21.50;99.90
45435;DHT22;31183;47.404;8.500;2023-09-19T10:54:10;21.40;99.90
45435;DHT22;31183;47.404;8.500;2023-09-19T10:56:43;21.30;99.90
45435;DHT22;31183;47.404;8.500;2023-09-19T10:59:16;21.20;99.90
45435;DHT22;31183;47.404;8.500;2023-09-19T11:01:52;21.00;99.90
45435;DHT22;31183;47.404;8.500;2023-09-19T11:04:30;20.90;99.90
45435;DHT22;31183;47.404;8.500;2023-09-19T11:07:07;20.90;99.90
45435;DHT22;31183;47.404;8.500;2023-09-19T11:09:51;20.80;99.90
45435;DHT22;31183;47.404;8.500;2023-09-19T11:14:56;20.80;99.90
45435;DHT22;31183;47.404;8.500;2023-09-19T11:17:35;20.80;99.90
45435;DHT22;31183;47.404;8.500;2023-09-19T11:30:49;21.10;99.90
45435;DHT22;31183;47.404;8.500;2023-09-19T11:33:23;21.00;99.90
45435;DHT22;31183;47.404;8.500;2023-09-19T11:46:56;21.10;99.90
45435;DHT22;31183;47.404;8.500;2023-09-19T11:49:32;21.10;99.90
45435;DHT22;31183;47.404;8.500;2023-09-19T11:52:01;21.10;99.90
45435;DHT22;31183;47.404;8.500;2023-09-19T11:54:32;21.10;99.90
45435;DHT22;31183;47.404;8.500;2023-09-19T11:57:00;21.00;99.90
45435;DHT22;31183;47.404;8.500;2023-09-19T11:59:29;21.00;99.90
45435;DHT22;31183;47.404;8.500;2023-09-19T12:01:57;21.00;99.90
45435;DHT22;31183;47.404;8.500;2023-09-19T12:04:41;21.00;99.90
45435;DHT22;31183;47.404;8.500;2023-09-19T12:07:12;21.10;99.90
45435;DHT22;31183;47.404;8.500;2023-09-19T12:09:48;21.10;99.90
45435;DHT22;31183;47.404;8.500;2023-09-19T12:12:28;21.10;99.90
45435;DHT22;31183;47.404;8.500;2023-09-19T12:14:56;21.10;99.90
45435;DHT22;31183;47.404;8.500;2023-09-19T12:17:36;21.10;99.90
45435;DHT22;31183;47.404;8.500;2023-09-19T12:20:03;21.10;99.90
45435;DHT22;31183;47.404;8.500;2023-09-19T12:22:44;21.20;99.90
45435;DHT22;31183;47.404;8.500;2023-09-19T12:25:11;21.20;99.90
45435;DHT22;31183;47.404;8.500;2023-09-19T12:27:42;21.20;99.90
45435;DHT22;31183;47.404;8.500;2023-09-19T12:30:11;21.20;99.90
45435;DHT22;31183;47.404;8.500;2023-09-19T12:32:53;21.20;99.90
45435;DHT22;31183;47.404;8.500;2023-09-19T12:35:32;21.30;99.90
45435;DHT22;31183;47.404;8.500;2023-09-19T12:38:02;21.20;99.90
45435;DHT22;31183;47.404;8.500;2023-09-19T12:40:30;21.20;99.90
45435;DHT22;31183;47.404;8.500;2023-09-19T12:43:00;21.10;99.90
45435;DHT22;31183;47.404;8.500;2023-09-19T12:45:30;21.10;99.90
45435;DHT22;31183;47.404;8.500;2023-09-19T12:51:11;21.00;99.90
45435;DHT22;31183;47.404;8.500;2023-09-19T12:53:44;20.90;99.90
45435;DHT22;31183;47.404;8.500;2023-09-19T12:56:16;20.90;99.90
45435;DHT22;31183;47.404;8.500;2023-09-19T12:58:52;21.00;99.90
45435;DHT22;31183;47.404;8.500;2023-09-19T13:01:23;21.00;99.90
45435;DHT22;31183;47.404;8.500;2023-09-19T13:04:21;20.90;99.90
45435;DHT22;31183;47.404;8.500;2023-09-19T13:06:59;21.00;99.90
45435;DHT22;31183;47.404;8.500;2023-09-19T13:09:28;20.90;99.90
45435;DHT22;31183;47.404;8.500;2023-09-19T13:12:01;21.00;99.90
45435;DHT22;31183;47.404;8.500;2023-09-19T13:14:33;21.10;99.90
45435;DHT22;31183;47.404;8.500;2023-09-19T13:17:05;21.10;99.90
45435;DHT22;31183;47.404;8.500;2023-09-19T13:19:43;21.10;99.10
45435;DHT22;31183;47.404;8.500;2023-09-19T13:22:41;21.10;98.90
45435;DHT22;31183;47.404;8.500;2023-09-19T13:25:13;21.00;98.60
45435;DHT22;31183;47.404;8.500;2023-09-19T13:27:49;21.00;99.10
45435;DHT22;31183;47.404;8.500;2023-09-19T13:30:18;21.00;99.10
45435;DHT22;31183;47.404;8.500;2023-09-19T13:32:45;21.00;99.30
45435;DHT22;31183;47.404;8.500;2023-09-19T13:35:14;20.90;99.20
45435;DHT22;31183;47.404;8.500;2023-09-19T13:37:43;20.90;99.60
45435;DHT22;31183;47.404;8.500;2023-09-19T13:40:12;21.00;99.80
45435;DHT22;31183;47.404;8.500;2023-09-19T13:42:40;21.00;99.50
45435;DHT22;31183;47.404;8.500;2023-09-19T13:45:07;21.10;98.90
45435;DHT22;31183;47.404;8.500;2023-09-19T13:47:38;21.10;99.20
45435;DHT22;31183;47.404;8.500;2023-09-19T13:50:06;21.10;98.40
45435;DHT22;31183;47.404;8.500;2023-09-19T13:52:33;21.10;98.90
45435;DHT22;31183;47.404;8.500;2023-09-19T13:55:00;21.00;99.10
45435;DHT22;31183;47.404;8.500;2023-09-19T13:57:27;21.00;99.40
45435;DHT22;31183;47.404;8.500;2023-09-19T13:59:55;21.00;99.60
45435;DHT22;31183;47.404;8.500;2023-09-19T14:02:22;21.00;99.80
45435;DHT22;31183;47.404;8.500;2023-09-19T14:04:50;21.00;99.90
45435;DHT22;31183;47.404;8.500;2023-09-19T14:07:17;21.00;99.90
45435;DHT22;31183;47.404;8.500;2023-09-19T14:09:45;21.00;99.90
45435;DHT22;31183;47.404;8.500;2023-09-19T14:12:12;21.00;99.90
45435;DHT22;31183;47.404;8.500;2023-09-19T14:14:39;21.10;99.80
45435;DHT22;31183;47.404;8.500;2023-09-19T14:17:06;21.10;98.90
45435;DHT22;31183;47.404;8.500;2023-09-19T14:19:33;21.20;99.00
45435;DHT22;31183;47.404;8.500;2023-09-19T14:22:01;21.20;98.90
45435;DHT22;31183;47.404;8.500;2023-09-19T14:24:34;21.30;98.50
45435;DHT22;31183;47.404;8.500;2023-09-19T14:27:01;21.20;98.10
45435;DHT22;31183;47.404;8.500;2023-09-19T14:29:30;21.20;97.90
45435;DHT22;31183;47.404;8.500;2023-09-19T14:31:57;21.20;97.80
45435;DHT22;31183;47.404;8.500;2023-09-19T14:34:25;21.20;98.10
45435;DHT22;31183;47.404;8.500;2023-09-19T14:36:51;21.20;97.90
45435;DHT22;31183;47.404;8.500;2023-09-19T14:39:18;21.10;98.00
45435;DHT22;31183;47.404;8.500;2023-09-19T14:41:46;21.10;97.60
45435;DHT22;31183;47.404;8.500;2023-09-19T14:44:12;21.20;96.70
45435;DHT22;31183;47.404;8.500;2023-09-19T14:46:39;21.20;97.00
45435;DHT22;31183;47.404;8.500;2023-09-19T14:49:06;21.20;96.20
45435;DHT22;31183;47.404;8.500;2023-09-19T14:51:33;21.20;96.50
45435;DHT22;31183;47.404;8.500;2023-09-19T14:54:02;21.20;96.70
45435;DHT22;31183;47.404;8.500;2023-09-19T14:56:29;21.10;96.40
45435;DHT22;31183;47.404;8.500;2023-09-19T14:58:57;21.10;96.90
45435;DHT22;31183;47.404;8.500;2023-09-19T15:01:24;21.10;97.10
45435;DHT22;31183;47.404;8.500;2023-09-19T15:03:51;21.10;97.10
45435;DHT22;31183;47.404;8.500;2023-09-19T15:06:18;21.10;96.50
45435;DHT22;31183;47.404;8.500;2023-09-19T15:08:47;21.10;96.90
45435;DHT22;31183;47.404;8.500;2023-09-19T15:11:16;21.10;96.40
45435;DHT22;31183;47.404;8.500;2023-09-19T15:13:47;21.10;96.50
45435;DHT22;31183;47.404;8.500;2023-09-19T15:16:14;21.10;96.30
45435;DHT22;31183;47.404;8.500;2023-09-19T15:18:42;21.10;95.90
45435;DHT22;31183;47.404;8.500;2023-09-19T15:21:11;21.10;95.40
45435;DHT22;31183;47.404;8.500;2023-09-19T15:23:39;21.10;95.90
45435;DHT22;31183;47.404;8.500;2023-09-19T15:26:07;21.10;96.00
45435;DHT22;31183;47.404;8.500;2023-09-19T15:28:40;21.00;95.90
45435;DHT22;31183;47.404;8.500;2023-09-19T15:31:12;21.10;96.10
45435;DHT22;31183;47.404;8.500;2023-09-19T15:33:40;21.10;96.10
45435;DHT22;31183;47.404;8.500;2023-09-19T15:36:11;21.10;95.80
45435;DHT22;31183;47.404;8.500;2023-09-19T15:38:58;21.10;95.50
45435;DHT22;31183;47.404;8.500;2023-09-19T15:41:37;21.10;94.90
45435;DHT22;31183;47.404;8.500;2023-09-19T15:44:11;21.10;95.40
45435;DHT22;31183;47.404;8.500;2023-09-19T15:46:38;21.00;94.80
45435;DHT22;31183;47.404;8.500;2023-09-19T15:49:05;21.00;95.20
45435;DHT22;31183;47.404;8.500;2023-09-19T15:51:32;21.00;95.50
45435;DHT22;31183;47.404;8.500;2023-09-19T15:53:59;21.00;95.50
45435;DHT22;31183;47.404;8.500;2023-09-19T15:56:29;21.00;95.30
45435;DHT22;31183;47.404;8.500;2023-09-19T15:58:56;21.00;95.50
45435;DHT22;31183;47.404;8.500;2023-09-19T16:01:23;21.00;95.90
45435;DHT22;31183;47.404;8.500;2023-09-19T16:03:51;21.00;96.30
45435;DHT22;31183;47.404;8.500;2023-09-19T16:06:30;21.00;95.80
45435;DHT22;31183;47.404;8.500;2023-09-19T16:08:58;21.00;96.10
45435;DHT22;31183;47.404;8.500;2023-09-19T16:11:27;21.00;96.40
45435;DHT22;31183;47.404;8.500;2023-09-19T16:13:54;21.00;96.10
45435;DHT22;31183;47.404;8.500;2023-09-19T16:16:22;21.00;95.70
45435;DHT22;31183;47.404;8.500;2023-09-19T16:18:52;21.00;95.80
45435;DHT22;31183;47.404;8.500;2023-09-19T16:21:23;21.00;95.90
45435;DHT22;31183;47.404;8.500;2023-09-19T16:23:51;21.00;95.80
45435;DHT22;31183;47.404;8.500;2023-09-19T16:26:21;21.00;96.00
45435;DHT22;31183;47.404;8.500;2023-09-19T16:28:51;21.00;95.90
45435;DHT22;31183;47.404;8.500;2023-09-19T16:31:18;20.90;96.00
45435;DHT22;31183;47.404;8.500;2023-09-19T16:33:47;20.90;95.90
45435;DHT22;31183;47.404;8.500;2023-09-19T16:36:16;21.00;95.70
45435;DHT22;31183;47.404;8.500;2023-09-19T16:38:46;20.90;95.50